< < Back
Terminal Aerodrome Forecast


Current Version              Previous Versions:   1  2  3  4  5  6  7  8  9  

Terminal Aerodrome Forecast

328
FTUS42 KGSP 011740
TAFGSP
TAF
KGSP 011740Z 0118/0218 21005KT P6SM BKN035
     FM012300 17006KT P6SM -SHRA OVC020
     FM020100 18007KT 5SM -SHRA OVC008
     FM020600 20012KT 2SM -SHRA BR OVC003
     FM021100 23013G20KT P6SM OVC025
     FM021300 27017G25KT P6SM SCT070=



Latest METAR

250
SAUS70 KWBC 020000
MTRGSP
METAR KGSP 012353Z 00000KT 10SM -RA OVC044 09/08 A2993 RMK AO2 SLP134
P0003 60005 T00890078 10139 20089 58020


USA.gov is the U.S. government's official web portal to all federal, state and local government web resources and services.